AFW weather

Fort Worth Alliance Airport
Fort Worth, Texas, United States

Public forecast

Using degrees Fahrenheit for public forecast. Weather courtesy of forecast.io.

METAR (pilot weather report)

Retrieved 2019/05/19 17:53 UTC (52 minutes ago):

KAFW 191753Z 05010KT 10SM FEW300 26/13 A2993 RMK AO2 SLP124 T02560128 10261 20156 51008 $

TAF (pilot weather forecast)

Retrieved 2019/05/19 18:48 UTC (0 seconds ago):

TAF KAFW 191747Z 1918/2024 03012KT P6SM FEW300 FM200500 08006KT P6SM BKN300 FM201000 12010KT P6SM SCT007 BKN015 TEMPO 2015/2018 BKN007